Time;durP1;ratioP1;P1;durP2;ratioP2;P2;SDS_P1;SDS_P2;PMS_P1;PMS_P2;Temp;Humidity;BMP_temperature;BMP_pressure;BME280_temperature;BME280_humidity;BME280_pressure;Samples;Min_cycle;Max_cycle;Signal;HPM_P1;HPM_P2
2021/11/08 00:00:38;;;;;;;407.33;116.43;;;;;;;;;;5036394;28;20449;-86
2021/11/08 00:03:09;;;;;;;21.80;19.85;;;;;;;;;;5036455;28;20203;-86
2021/11/08 00:05:40;;;;;;;246.57;99.18;;;;;;;;;;5036217;28;20525;-85
2021/11/08 00:08:07;;;;;;;398.55;119.93;;;;;;;;;;5035994;28;20188;-86
2021/11/08 00:10:36;;;;;;;337.35;108.82;;;;;;;;;;5036188;28;20673;-86
2021/11/08 00:13:05;;;;;;;299.73;99.97;;;;;;;;;;5035898;28;20242;-86
2021/11/08 00:15:40;;;;;;;237.77;93.47;;;;;;;;;;5035529;28;20676;-86
2021/11/08 00:18:13;;;;;;;376.02;114.28;;;;;;;;;;5035605;28;20590;-86
2021/11/08 00:20:44;;;;;;;408.38;118.57;;;;;;;;;;5035754;28;20556;-86
2021/11/08 00:23:11;;;;;;;357.33;115.00;;;;;;;;;;5036067;28;20192;-86
2021/11/08 00:25:41;;;;;;;354.40;113.75;;;;;;;;;;5035951;28;20192;-86
2021/11/08 00:28:08;;;;;;;28.20;21.07;;;;;;;;;;5036359;28;20550;-87
2021/11/08 00:30:36;;;;;;;414.15;120.88;;;;;;;;;;5035882;28;20426;-85
2021/11/08 00:33:04;;;;;;;298.52;102.35;;;;;;;;;;5035897;28;20209;-85
2021/11/08 00:35:34;;;;;;;175.85;96.60;;;;;;;;;;5035528;28;20203;-85
2021/11/08 00:38:01;;;;;;;24.53;20.67;;;;;;;;;;5035399;28;20207;-86
2021/11/08 00:40:28;;;;;;;24.20;21.60;;;;;;;;;;5035482;28;20426;-86
2021/11/08 00:42:56;;;;;;;392.75;121.25;;;;;;;;;;5035454;28;20422;-86
2021/11/08 00:45:23;;;;;;;338.60;129.85;;;;;;;;;;5035936;28;20597;-86
2021/11/08 00:47:51;;;;;;;25.33;23.13;;;;;;;;;;5017922;28;20197;-85
2021/11/08 00:50:19;;;;;;;368.48;116.07;;;;;;;;;;5034964;28;20224;-85
2021/11/08 00:52:48;;;;;;;415.63;125.50;;;;;;;;;;5035373;28;20197;-86
2021/11/08 00:55:16;;;;;;;408.83;119.07;;;;;;;;;;5035201;28;20267;-85
2021/11/08 00:57:47;;;;;;;412.10;114.10;;;;;;;;;;5035323;28;20203;-86
2021/11/08 01:00:16;;;;;;;374.67;115.50;;;;;;;;;;5035043;28;20216;-85
2021/11/08 01:02:44;;;;;;;23.77;21.60;;;;;;;;;;5035267;28;20226;-85
2021/11/08 01:05:13;;;;;;;22.33;20.10;;;;;;;;;;5035093;28;20525;-85
2021/11/08 01:07:41;;;;;;;24.07;21.20;;;;;;;;;;5034727;28;21036;-86
2021/11/08 01:10:11;;;;;;;23.00;21.00;;;;;;;;;;5035218;28;20895;-86
2021/11/08 01:12:38;;;;;;;69.20;52.40;;;;;;;;;;5017231;28;20472;-85
2021/11/08 01:15:07;;;;;;;420.58;117.70;;;;;;;;;;5034460;28;20473;-86
2021/11/08 01:17:34;;;;;;;303.05;106.18;;;;;;;;;;5034268;28;20199;-85
2021/11/08 01:20:02;;;;;;;406.40;114.55;;;;;;;;;;5034587;28;20274;-86
2021/11/08 01:22:30;;;;;;;414.52;117.80;;;;;;;;;;5034879;28;20314;-86
2021/11/08 01:24:57;;;;;;;345.02;102.05;;;;;;;;;;5034578;28;20549;-86
2021/11/08 01:27:33;;;;;;;394.35;116.78;;;;;;;;;;5034378;28;20209;-85
2021/11/08 01:30:00;;;;;;;408.98;112.78;;;;;;;;;;5034313;28;20265;-86
2021/11/08 01:32:28;;;;;;;407.50;114.70;;;;;;;;;;5033870;28;20204;-86
2021/11/08 01:34:56;;;;;;;411.95;113.72;;;;;;;;;;5034537;28;20196;-86
2021/11/08 01:37:23;;;;;;;417.73;113.40;;;;;;;;;;5034552;28;20326;-86
2021/11/08 01:39:51;;;;;;;418.17;119.10;;;;;;;;;;5034315;28;20213;-86
2021/11/08 01:42:19;;;;;;;373.83;116.35;;;;;;;;;;5033920;28;20681;-86
2021/11/08 01:44:47;;;;;;;421.08;115.47;;;;;;;;;;5034339;28;20199;-85
2021/11/08 01:47:15;;;;;;;363.55;113.93;;;;;;;;;;5034318;28;20188;-86
2021/11/08 01:49:42;;;;;;;405.17;114.47;;;;;;;;;;5034203;28;20287;-85
2021/11/08 01:52:11;;;;;;;396.77;117.07;;;;;;;;;;5034295;28;20199;-85
2021/11/08 01:54:39;;;;;;;399.90;116.55;;;;;;;;;;5034457;28;20243;-86
2021/11/08 01:57:07;;;;;;;401.10;115.13;;;;;;;;;;5034297;28;20253;-85
2021/11/08 01:59:35;;;;;;;412.55;112.95;;;;;;;;;;5033849;28;20226;-85
2021/11/08 02:02:03;;;;;;;407.05;136.00;;;;;;;;;;5034004;28;20197;-85
2021/11/08 02:04:31;;;;;;;194.95;126.53;;;;;;;;;;5016362;28;20277;-85
2021/11/08 02:06:58;;;;;;;49.17;45.77;;;;;;;;;;5033850;28;20208;-86
2021/11/08 02:09:25;;;;;;;256.60;111.13;;;;;;;;;;5033763;28;20443;-85
2021/11/08 02:11:53;;;;;;;394.13;117.03;;;;;;;;;;5033579;28;20662;-84
2021/11/08 02:14:21;;;;;;;303.95;111.18;;;;;;;;;;5034167;28;20626;-86
2021/11/08 02:16:48;;;;;;;264.45;99.38;;;;;;;;;;5034031;28;20192;-85
2021/11/08 02:19:17;;;;;;;402.35;114.32;;;;;;;;;;5033504;28;20784;-86
2021/11/08 02:21:46;;;;;;;403.63;113.57;;;;;;;;;;5033509;28;20207;-86
2021/11/08 02:24:17;;;;;;;406.58;113.78;;;;;;;;;;5033889;28;20206;-86
2021/11/08 02:26:46;;;;;;;414.73;113.22;;;;;;;;;;5034021;28;20185;-86
2021/11/08 02:29:14;;;;;;;416.52;117.25;;;;;;;;;;5033757;28;20198;-86
2021/11/08 02:31:41;;;;;;;227.80;93.97;;;;;;;;;;5033882;28;20598;-86
2021/11/08 02:34:09;;;;;;;108.87;69.40;;;;;;;;;;5033929;28;20196;-86
2021/11/08 02:36:41;;;;;;;22.00;19.77;;;;;;;;;;5033355;28;20497;-86
2021/11/08 02:39:14;;;;;;;21.50;19.70;;;;;;;;;;5033879;28;20557;-86
2021/11/08 02:41:42;;;;;;;21.37;19.53;;;;;;;;;;5033888;28;20444;-87
2021/11/08 02:44:09;;;;;;;22.40;20.30;;;;;;;;;;5035522;28;20417;-86
2021/11/08 02:46:39;;;;;;;152.73;88.95;;;;;;;;;;5037560;28;20845;-86
2021/11/08 02:49:09;;;;;;;37.87;21.23;;;;;;;;;;5037667;28;20270;-85
2021/11/08 02:51:42;;;;;;;22.43;20.40;;;;;;;;;;5037351;28;20447;-86
2021/11/08 02:54:14;;;;;;;21.67;19.93;;;;;;;;;;5037254;28;20909;-86
2021/11/08 02:56:42;;;;;;;21.77;20.13;;;;;;;;;;5037473;28;20520;-86
2021/11/08 02:59:10;;;;;;;22.33;20.30;;;;;;;;;;5037251;28;20484;-86
2021/11/08 03:01:37;;;;;;;23.03;20.83;;;;;;;;;;5020138;28;20446;-86
2021/11/08 03:04:12;;;;;;;372.77;152.27;;;;;;;;;;5037375;28;20987;-86
2021/11/08 03:06:40;;;;;;;299.50;115.07;;;;;;;;;;5037352;28;20199;-86
2021/11/08 03:09:08;;;;;;;365.35;116.22;;;;;;;;;;5019935;28;20208;-86
2021/11/08 03:11:37;;;;;;;23.23;20.90;;;;;;;;;;5037235;28;20280;-86
2021/11/08 03:14:06;;;;;;;211.40;106.22;;;;;;;;;;5037457;28;20418;-86
2021/11/08 03:16:40;;;;;;;22.70;20.83;;;;;;;;;;5036996;28;20638;-86
2021/11/08 03:19:16;;;;;;;23.70;20.90;;;;;;;;;;5037257;28;20460;-86
2021/11/08 03:21:44;;;;;;;22.67;20.53;;;;;;;;;;5036794;28;20231;-86
2021/11/08 03:24:15;;;;;;;21.50;19.70;;;;;;;;;;5037102;28;20471;-86
2021/11/08 03:26:47;;;;;;;22.75;20.05;;;;;;;;;;5037280;28;20443;-86
2021/11/08 03:29:15;;;;;;;21.63;19.83;;;;;;;;;;5037063;28;20188;-85
2021/11/08 03:31:44;;;;;;;24.03;21.20;;;;;;;;;;5036920;28;20455;-86
2021/11/08 03:34:13;;;;;;;22.57;20.47;;;;;;;;;;5036411;28;20503;-85
2021/11/08 03:36:40;;;;;;;24.53;22.20;;;;;;;;;;5019176;28;20476;-86
2021/11/08 03:39:08;;;;;;;24.43;20.53;;;;;;;;;;5036588;28;20486;-85
2021/11/08 03:41:37;;;;;;;22.13;20.07;;;;;;;;;;5036878;28;20424;-86
2021/11/08 03:44:06;;;;;;;23.03;20.87;;;;;;;;;;5036511;28;20444;-85
2021/11/08 03:46:33;;;;;;;219.80;103.60;;;;;;;;;;5036669;28;20411;-85
2021/11/08 03:49:00;;;;;;;22.60;20.50;;;;;;;;;;5036459;28;20232;-86
2021/11/08 03:51:28;;;;;;;23.73;21.52;;;;;;;;;;5036603;28;20424;-85
2021/11/08 03:53:55;;;;;;;22.65;20.30;;;;;;;;;;5036570;28;20197;-86
2021/11/08 03:56:22;;;;;;;22.65;20.75;;;;;;;;;;5035736;28;20191;-86
2021/11/08 03:58:50;;;;;;;23.33;21.15;;;;;;;;;;5036324;28;20659;-85
2021/11/08 04:01:20;;;;;;;22.67;20.90;;;;;;;;;;5036298;28;20266;-85
2021/11/08 04:03:47;;;;;;;22.27;20.58;;;;;;;;;;5036339;28;20435;-85
2021/11/08 04:06:15;;;;;;;24.40;21.83;;;;;;;;;;5036342;28;20191;-86
2021/11/08 04:08:43;;;;;;;23.03;20.97;;;;;;;;;;5036281;28;20594;-86
2021/11/08 04:11:10;;;;;;;22.52;20.73;;;;;;;;;;5036195;28;20458;-85
2021/11/08 04:13:41;;;;;;;23.70;21.27;;;;;;;;;;5035761;28;20189;-85
2021/11/08 04:16:12;;;;;;;25.45;20.75;;;;;;;;;;5035975;28;20446;-85
2021/11/08 04:18:47;;;;;;;24.07;21.93;;;;;;;;;;5035911;28;20188;-86
2021/11/08 04:21:15;;;;;;;22.95;20.83;;;;;;;;;;5036150;28;20540;-86
2021/11/08 04:23:43;;;;;;;23.10;20.93;;;;;;;;;;5035643;28;20200;-86
2021/11/08 04:26:12;;;;;;;23.33;21.08;;;;;;;;;;5035767;28;20824;-85
2021/11/08 04:28:40;;;;;;;414.88;159.70;;;;;;;;;;5036050;28;20193;-85
2021/11/08 04:31:09;;;;;;;440.13;149.57;;;;;;;;;;5035705;28;20665;-85
2021/11/08 04:33:43;;;;;;;365.98;126.78;;;;;;;;;;5018750;28;20554;-85
2021/11/08 04:39:09;;;;;;;388.45;128.73;;;;;;;;;;5034204;28;20224;-85
2021/11/08 04:41:43;;;;;;;334.77;112.25;;;;;;;;;;5035263;28;20206;-86
2021/11/08 04:44:34;;;;;;;400.52;115.30;;;;;;;;;;5035269;28;20571;-85
2021/11/08 04:47:17;;;;;;;21.97;20.17;;;;;;;;;;5035495;28;20196;-84
2021/11/08 04:49:53;;;;;;;23.00;20.90;;;;;;;;;;5035248;28;20459;-85
2021/11/08 04:52:35;;;;;;;384.98;114.60;;;;;;;;;;5035390;28;20449;-84
2021/11/08 04:55:08;;;;;;;389.45;112.47;;;;;;;;;;5035034;28;20225;-85
2021/11/08 05:22:47;;;;;;;23.10;21.27;;;;;;;;;;4954742;29;20236;-84
2021/11/08 05:27:48;;;;;;;246.32;98.15;;;;;;;;;;4954714;28;20232;-83
2021/11/08 05:28:38;;;;;;;23.55;21.20;;;;;;;;;;4954676;29;20289;-85
2021/11/08 05:31:05;;;;;;;22.80;20.50;;;;;;;;;;4954334;29;20213;-85
2021/11/08 05:33:33;;;;;;;22.58;20.65;;;;;;;;;;4954629;28;20453;-85
2021/11/08 05:36:00;;;;;;;23.17;20.88;;;;;;;;;;4954494;29;20206;-86
2021/11/08 05:38:27;;;;;;;24.02;21.67;;;;;;;;;;4954623;29;20211;-85
2021/11/08 05:40:56;;;;;;;22.42;20.50;;;;;;;;;;4954749;28;20264;-86
2021/11/08 05:43:24;;;;;;;22.98;20.85;;;;;;;;;;5009996;28;20674;-86
2021/11/08 05:45:51;;;;;;;22.40;20.43;;;;;;;;;;5034201;28;20195;-86
2021/11/08 05:48:18;;;;;;;23.10;21.17;;;;;;;;;;5034050;28;20432;-85
2021/11/08 05:50:46;;;;;;;24.53;22.27;;;;;;;;;;5033874;28;20242;-85
2021/11/08 05:53:14;;;;;;;77.68;57.35;;;;;;;;;;5034100;28;20443;-85
2021/11/08 05:55:45;;;;;;;25.13;22.90;;;;;;;;;;5034161;28;20231;-85
2021/11/08 05:58:33;;;;;;;24.55;22.25;;;;;;;;;;5033863;28;20203;-85
2021/11/08 06:50:26;;;;;;;361.75;127.40;;;;;;;;;;5033332;28;20319;-85
2021/11/08 06:53:00;;;;;;;275.80;113.30;;;;;;;;;;5033516;28;20192;-85
2021/11/08 06:55:28;;;;;;;28.57;25.83;;;;;;;;;;5033357;28;20223;-85
2021/11/08 06:58:01;;;;;;;414.08;129.70;;;;;;;;;;5033427;28;20417;-84
2021/11/08 07:00:29;;;;;;;31.63;28.10;;;;;;;;;;5033056;28;20235;-85
2021/11/08 07:02:58;;;;;;;35.05;29.85;;;;;;;;;;5033539;28;20447;-83
2021/11/08 07:05:25;;;;;;;389.02;135.30;;;;;;;;;;5032536;28;20554;-82
2021/11/08 07:07:52;;;;;;;32.97;27.85;;;;;;;;;;5032575;28;20205;-87
2021/11/08 07:10:21;;;;;;;353.23;130.18;;;;;;;;;;5032610;28;20211;-82
2021/11/08 07:12:49;;;;;;;34.87;29.93;;;;;;;;;;5032412;28;20666;-82
2021/11/08 07:15:16;;;;;;;31.80;28.88;;;;;;;;;;5032363;28;20759;-82
2021/11/08 07:17:43;;;;;;;346.88;129.98;;;;;;;;;;5031966;28;20197;-82
2021/11/08 07:20:12;;;;;;;30.10;26.93;;;;;;;;;;5032467;28;20228;-82
2021/11/08 07:22:40;;;;;;;401.35;131.98;;;;;;;;;;5014855;28;20461;-83
2021/11/08 07:25:09;;;;;;;343.02;127.18;;;;;;;;;;5032300;28;20192;-83
2021/11/08 07:27:36;;;;;;;386.25;124.78;;;;;;;;;;5032364;28;20280;-83
2021/11/08 07:30:03;;;;;;;31.63;28.47;;;;;;;;;;5032221;28;20189;-83
2021/11/08 07:32:31;;;;;;;37.33;30.60;;;;;;;;;;5036087;28;20901;-83
2021/11/08 07:34:59;;;;;;;36.38;28.50;;;;;;;;;;5035941;28;20512;-84
2021/11/08 07:37:27;;;;;;;148.20;101.63;;;;;;;;;;5036507;28;20554;-84
2021/11/08 07:39:55;;;;;;;148.52;104.00;;;;;;;;;;5036307;28;20661;-90
2021/11/08 07:42:25;;;;;;;308.90;129.52;;;;;;;;;;5036901;28;20195;-85
2021/11/08 07:44:53;;;;;;;32.33;28.50;;;;;;;;;;5036951;28;20231;-85
2021/11/08 07:47:20;;;;;;;293.95;130.35;;;;;;;;;;5036229;28;20442;-85
2021/11/08 07:49:47;;;;;;;336.65;126.68;;;;;;;;;;5036181;28;20240;-86
2021/11/08 07:52:15;;;;;;;134.77;109.97;;;;;;;;;;5036796;28;20200;-85
2021/11/08 07:54:44;;;;;;;32.70;27.67;;;;;;;;;;5036544;28;20251;-84
2021/11/08 07:57:12;;;;;;;229.77;129.48;;;;;;;;;;5036179;28;20435;-84
2021/11/08 07:59:41;;;;;;;32.27;28.87;;;;;;;;;;5035995;28;20676;-85
2021/11/08 08:02:08;;;;;;;32.27;28.87;;;;;;;;;;5019041;28;21061;-86
2021/11/08 08:04:36;;;;;;;258.45;128.07;;;;;;;;;;5036521;28;20490;-85
2021/11/08 08:07:03;;;;;;;37.13;32.63;;;;;;;;;;5036021;28;20629;-84
2021/11/08 08:09:31;;;;;;;42.25;33.00;;;;;;;;;;5036024;28;20193;-85
2021/11/08 08:11:59;;;;;;;320.92;132.55;;;;;;;;;;5035772;28;20193;-85
2021/11/08 08:14:27;;;;;;;39.90;31.87;;;;;;;;;;5036134;28;20196;-85
2021/11/08 08:16:54;;;;;;;38.30;33.60;;;;;;;;;;5035937;28;20437;-85
2021/11/08 08:19:22;;;;;;;359.30;141.60;;;;;;;;;;5036263;28;20435;-85
2021/11/08 08:21:49;;;;;;;38.70;34.50;;;;;;;;;;5035584;28;20271;-85
2021/11/08 08:24:16;;;;;;;39.00;34.80;;;;;;;;;;5035983;28;20436;-84
2021/11/08 08:26:44;;;;;;;37.00;33.10;;;;;;;;;;5035651;28;20436;-85
2021/11/08 08:29:14;;;;;;;38.30;34.33;;;;;;;;;;5035920;28;20917;-86
2021/11/08 08:31:43;;;;;;;39.33;34.33;;;;;;;;;;5036271;28;20188;-87
2021/11/08 08:34:11;;;;;;;272.40;133.18;;;;;;;;;;5035297;28;20434;-85
2021/11/08 08:36:39;;;;;;;38.35;34.10;;;;;;;;;;5035869;28;20286;-85
2021/11/08 08:39:07;;;;;;;46.03;35.83;;;;;;;;;;5035390;28;20669;-85
2021/11/08 08:41:35;;;;;;;97.93;88.37;;;;;;;;;;5035422;28;20496;-87
2021/11/08 08:44:02;;;;;;;41.87;32.27;;;;;;;;;;5035272;28;20413;-85
2021/11/08 08:46:32;;;;;;;36.33;32.60;;;;;;;;;;5035105;28;20429;-85
2021/11/08 08:48:59;;;;;;;210.60;124.03;;;;;;;;;;5035182;28;20460;-86
2021/11/08 08:51:27;;;;;;;40.10;32.80;;;;;;;;;;5017578;28;20201;-86
2021/11/08 08:53:55;;;;;;;323.13;137.77;;;;;;;;;;5035615;28;20448;-87
2021/11/08 08:56:23;;;;;;;413.38;148.98;;;;;;;;;;5035009;28;20199;-86
2021/11/08 08:58:51;;;;;;;441.15;156.57;;;;;;;;;;5035265;28;20204;-86
2021/11/08 09:01:18;;;;;;;340.75;149.90;;;;;;;;;;5035468;28;20224;-86
2021/11/08 09:03:47;;;;;;;173.57;119.25;;;;;;;;;;5035498;28;20189;-86
2021/11/08 09:06:15;;;;;;;116.00;103.13;;;;;;;;;;5035394;28;20195;-86
2021/11/08 09:08:42;;;;;;;144.48;114.88;;;;;;;;;;5034767;28;20533;-86
2021/11/08 09:11:10;;;;;;;147.05;116.88;;;;;;;;;;5035206;28;20196;-86
2021/11/08 09:13:38;;;;;;;220.95;125.82;;;;;;;;;;5034915;28;20192;-86
2021/11/08 09:16:11;;;;;;;402.15;150.65;;;;;;;;;;5035113;28;20192;-86
2021/11/08 09:18:40;;;;;;;390.98;142.48;;;;;;;;;;5017201;28;20765;-86
2021/11/08 09:21:09;;;;;;;392.42;145.40;;;;;;;;;;5035265;28;20251;-86
2021/11/08 09:23:37;;;;;;;394.63;149.10;;;;;;;;;;5017474;28;20273;-86
2021/11/08 09:26:05;;;;;;;379.27;145.55;;;;;;;;;;5035238;28;20192;-86
2021/11/08 09:28:33;;;;;;;252.45;145.15;;;;;;;;;;5017850;28;20200;-86
2021/11/08 09:31:00;;;;;;;366.40;148.50;;;;;;;;;;5034760;28;20208;-86
2021/11/08 09:33:27;;;;;;;452.30;161.75;;;;;;;;;;5034919;28;20201;-85
2021/11/08 09:36:00;;;;;;;336.30;147.77;;;;;;;;;;5017931;28;20203;-86
2021/11/08 09:38:29;;;;;;;346.77;142.05;;;;;;;;;;5035260;28;20192;-86
2021/11/08 09:40:57;;;;;;;432.40;156.82;;;;;;;;;;5034833;28;20215;-81
2021/11/08 09:43:25;;;;;;;350.42;148.85;;;;;;;;;;5042639;28;20204;-87
2021/11/08 09:45:53;;;;;;;335.08;146.15;;;;;;;;;;5037747;28;20203;-86
2021/11/08 09:48:21;;;;;;;402.35;150.68;;;;;;;;;;5035666;28;20209;-87
2021/11/08 09:50:49;;;;;;;237.10;140.73;;;;;;;;;;5034353;28;20199;-85
2021/11/08 09:53:18;;;;;;;36.87;32.77;;;;;;;;;;5034168;28;20235;-87
2021/11/08 09:55:48;;;;;;;48.77;43.87;;;;;;;;;;5016956;28;20425;-86
2021/11/08 09:58:15;;;;;;;36.13;32.30;;;;;;;;;;5034504;28;20417;-86
2021/11/08 10:00:47;;;;;;;93.80;86.17;;;;;;;;;;5034540;28;20451;-86
2021/11/08 10:03:15;;;;;;;131.88;115.32;;;;;;;;;;5034626;28;20442;-87
2021/11/08 10:05:44;;;;;;;131.55;111.45;;;;;;;;;;5035882;28;20196;-86
2021/11/08 10:08:11;;;;;;;323.23;153.50;;;;;;;;;;5029228;28;20200;-88
2021/11/08 10:10:39;;;;;;;58.40;52.63;;;;;;;;;;5014225;28;20212;-87
2021/11/08 10:13:09;;;;;;;34.57;31.10;;;;;;;;;;5014734;28;20421;-87
2021/11/08 10:15:38;;;;;;;181.47;133.30;;;;;;;;;;5014446;28;20451;-87
2021/11/08 10:18:06;;;;;;;128.75;116.75;;;;;;;;;;5014021;28;20444;-87
2021/11/08 10:20:35;;;;;;;133.03;120.17;;;;;;;;;;5014174;28;20197;-89
2021/11/08 10:23:03;;;;;;;35.03;31.60;;;;;;;;;;5013417;28;20452;-88
2021/11/08 10:25:32;;;;;;;189.02;124.25;;;;;;;;;;5014944;28;20443;-88
2021/11/08 10:28:00;;;;;;;34.70;31.07;;;;;;;;;;5014597;28;20267;-88
2021/11/08 10:30:30;;;;;;;37.23;30.30;;;;;;;;;;5014927;28;20435;-88
2021/11/08 10:33:12;;;;;;;33.93;30.60;;;;;;;;;;5014462;28;20414;-88
2021/11/08 10:35:40;;;;;;;30.10;27.20;;;;;;;;;;5014468;28;20415;-88
2021/11/08 10:38:09;;;;;;;32.50;28.23;;;;;;;;;;5014115;28;20402;-87
2021/11/08 10:40:42;;;;;;;40.67;29.60;;;;;;;;;;5014483;28;20908;-88
2021/11/08 10:43:10;;;;;;;34.40;31.00;;;;;;;;;;5014468;28;20451;-88
2021/11/08 10:45:48;;;;;;;31.83;28.63;;;;;;;;;;5014499;28;20455;-87
2021/11/08 10:48:19;;;;;;;29.77;27.17;;;;;;;;;;5014018;28;20479;-86
2021/11/08 10:50:48;;;;;;;29.97;27.07;;;;;;;;;;5013568;28;20900;-86
2021/11/08 10:53:16;;;;;;;31.10;28.00;;;;;;;;;;5013628;28;20848;-95
2021/11/08 10:55:43;;;;;;;30.97;28.00;;;;;;;;;;5014982;28;20435;-95
2021/11/08 10:58:11;;;;;;;34.40;28.97;;;;;;;;;;5016272;28;20434;-91
2021/11/08 11:00:48;;;;;;;295.70;139.48;;;;;;;;;;5015936;28;20902;-87
2021/11/08 11:03:17;;;;;;;187.25;130.38;;;;;;;;;;5021562;28;20267;-96
2021/11/08 11:05:45;;;;;;;194.43;128.30;;;;;;;;;;5022815;28;20697;-96
2021/11/08 11:08:15;;;;;;;112.13;100.40;;;;;;;;;;5035474;28;20446;-94
2021/11/08 11:10:53;;;;;;;49.63;44.67;;;;;;;;;;5060314;28;20416;-84
2021/11/08 11:13:21;;;;;;;81.47;74.10;;;;;;;;;;5057355;28;20470;-84
2021/11/08 11:15:50;;;;;;;306.67;152.20;;;;;;;;;;5057377;28;20461;-84
2021/11/08 11:18:19;;;;;;;26.47;23.73;;;;;;;;;;5057102;28;20191;-84
2021/11/08 11:20:48;;;;;;;54.87;51.20;;;;;;;;;;5056665;28;20915;-84
2021/11/08 11:23:21;;;;;;;163.87;136.00;;;;;;;;;;5056917;28;20457;-84
2021/11/08 11:25:52;;;;;;;49.33;44.70;;;;;;;;;;5056778;28;20529;-84
2021/11/08 11:28:24;;;;;;;71.93;62.13;;;;;;;;;;5038947;28;20911;-84
2021/11/08 11:30:53;;;;;;;139.60;127.53;;;;;;;;;;5056946;28;20465;-83
2021/11/08 11:33:22;;;;;;;161.57;131.23;;;;;;;;;;5056385;28;20423;-84
2021/11/08 11:35:51;;;;;;;130.77;119.57;;;;;;;;;;5056509;28;20797;-84
2021/11/08 11:38:21;;;;;;;26.97;24.37;;;;;;;;;;5056764;28;20820;-84
2021/11/08 11:40:54;;;;;;;124.30;114.30;;;;;;;;;;5042908;28;20433;-84
2021/11/08 11:43:27;;;;;;;285.67;161.63;;;;;;;;;;5056774;28;20473;-84
2021/11/08 11:45:56;;;;;;;220.07;154.02;;;;;;;;;;5056582;28;20443;-84
2021/11/08 11:48:26;;;;;;;223.67;155.53;;;;;;;;;;5056501;28;20194;-84
2021/11/08 11:50:54;;;;;;;350.38;165.57;;;;;;;;;;5056314;28;20850;-84
2021/11/08 11:53:21;;;;;;;354.83;168.50;;;;;;;;;;5056117;28;20236;-84
2021/11/08 11:55:49;;;;;;;260.20;173.67;;;;;;;;;;5056165;28;20199;-84
2021/11/08 11:58:17;;;;;;;256.03;164.73;;;;;;;;;;5056342;28;20538;-84
2021/11/08 12:00:46;;;;;;;212.87;160.47;;;;;;;;;;5056148;28;20459;-84
2021/11/08 12:03:15;;;;;;;209.80;165.73;;;;;;;;;;5056093;28;20983;-84
2021/11/08 12:05:44;;;;;;;275.57;165.63;;;;;;;;;;5056744;28;20766;-86
2021/11/08 12:08:12;;;;;;;176.43;156.97;;;;;;;;;;5056286;28;20451;-86
2021/11/08 12:10:45;;;;;;;153.67;140.50;;;;;;;;;;5057241;28;20449;-85
2021/11/08 12:13:16;;;;;;;149.90;138.00;;;;;;;;;;5039914;28;20523;-85
2021/11/08 12:15:44;;;;;;;34.47;31.83;;;;;;;;;;5057587;28;20439;-85
2021/11/08 12:18:14;;;;;;;70.07;65.57;;;;;;;;;;5038134;28;20838;-85
2021/11/08 12:20:48;;;;;;;55.00;51.20;;;;;;;;;;5057552;28;20446;-85
2021/11/08 12:23:16;;;;;;;65.83;62.10;;;;;;;;;;5057520;28;20460;-86
2021/11/08 12:25:45;;;;;;;56.13;53.27;;;;;;;;;;5056976;28;20492;-87
2021/11/08 12:28:14;;;;;;;35.23;32.93;;;;;;;;;;5057196;28;20524;-86
2021/11/08 12:30:44;;;;;;;32.00;29.63;;;;;;;;;;5056252;28;20810;-86
2021/11/08 12:33:26;;;;;;;60.93;57.80;;;;;;;;;;5055928;28;20825;-86
2021/11/08 12:35:55;;;;;;;28.60;26.93;;;;;;;;;;5038046;28;20477;-86
2021/11/08 12:38:25;;;;;;;26.67;24.87;;;;;;;;;;5055721;28;20917;-86
2021/11/08 12:41:08;;;;;;;28.03;26.07;;;;;;;;;;5039540;28;20812;-88
2021/11/08 12:43:37;;;;;;;34.17;31.87;;;;;;;;;;5059240;28;20460;-87
2021/11/08 12:46:14;;;;;;;60.20;56.20;;;;;;;;;;5057879;28;20435;-88
2021/11/08 12:48:42;;;;;;;31.23;28.93;;;;;;;;;;5054973;28;20488;-89
2021/11/08 12:51:18;;;;;;;28.57;25.43;;;;;;;;;;5059827;28;20405;-88
2021/11/08 12:53:46;;;;;;;35.33;32.53;;;;;;;;;;5070076;28;20456;-87
2021/11/08 12:56:23;;;;;;;37.17;31.90;;;;;;;;;;5056348;28;20421;-83
2021/11/08 12:58:57;;;;;;;77.40;73.10;;;;;;;;;;5058480;28;20500;-91
2021/11/08 13:01:25;;;;;;;31.27;28.77;;;;;;;;;;5040036;28;20444;-91
2021/11/08 13:03:55;;;;;;;53.17;49.90;;;;;;;;;;5056122;28;20449;-90
2021/11/08 13:06:28;;;;;;;36.17;33.77;;;;;;;;;;5056927;28;20451;-90
2021/11/08 13:09:10;;;;;;;43.40;40.40;;;;;;;;;;5056639;28;20444;-91
2021/11/08 13:11:38;;;;;;;53.30;50.00;;;;;;;;;;5056780;28;20441;-91
2021/11/08 13:14:07;;;;;;;60.57;56.87;;;;;;;;;;5056185;28;20450;-91
2021/11/08 13:16:35;;;;;;;63.53;59.03;;;;;;;;;;5056309;28;20913;-91
2021/11/08 13:19:07;;;;;;;62.27;58.63;;;;;;;;;;5038523;28;20433;-90
2021/11/08 13:21:36;;;;;;;60.27;56.30;;;;;;;;;;5057741;28;20817;-93
2021/11/08 13:24:05;;;;;;;49.17;46.47;;;;;;;;;;5064247;28;20413;-90
2021/11/08 13:26:35;;;;;;;44.17;41.37;;;;;;;;;;5043140;28;20444;-90
2021/11/08 13:29:08;;;;;;;49.07;45.73;;;;;;;;;;5061393;28;20525;-91
2021/11/08 13:31:35;;;;;;;40.67;37.67;;;;;;;;;;5063115;28;20424;-90
2021/11/08 13:34:02;;;;;;;36.87;34.50;;;;;;;;;;5042235;28;20446;-91
2021/11/08 13:36:30;;;;;;;56.60;52.90;;;;;;;;;;5059665;28;20436;-91
2021/11/08 13:39:00;;;;;;;45.43;42.27;;;;;;;;;;5061467;28;20443;-91
2021/11/08 13:41:32;;;;;;;63.07;59.47;;;;;;;;;;5060117;28;20816;-91
2021/11/08 13:44:01;;;;;;;72.63;67.83;;;;;;;;;;5058046;28;20486;-91
2021/11/08 13:46:30;;;;;;;77.00;72.93;;;;;;;;;;5058782;28;20421;-92
2021/11/08 13:49:00;;;;;;;25.13;23.33;;;;;;;;;;5061100;28;20818;-90
2021/11/08 13:51:29;;;;;;;70.83;67.03;;;;;;;;;;5044760;28;20827;-90
2021/11/08 13:53:58;;;;;;;67.40;62.97;;;;;;;;;;5065314;28;20869;-91
2021/11/08 13:56:33;;;;;;;72.77;68.37;;;;;;;;;;5063303;28;20433;-89
2021/11/08 13:59:02;;;;;;;50.93;48.03;;;;;;;;;;5026263;28;20463;-90
2021/11/08 14:01:31;;;;;;;38.97;35.43;;;;;;;;;;5029148;28;20419;-92
2021/11/08 14:03:58;;;;;;;52.27;48.90;;;;;;;;;;5025416;28;20462;-91
2021/11/08 14:06:33;;;;;;;41.60;38.43;;;;;;;;;;5035113;28;20431;-91
2021/11/08 14:09:01;;;;;;;36.40;33.23;;;;;;;;;;5030670;28;20415;-90
2021/11/08 14:11:32;;;;;;;39.00;36.23;;;;;;;;;;5024830;28;20413;-91
2021/11/08 14:14:04;;;;;;;38.40;36.17;;;;;;;;;;5022814;28;20914;-91
2021/11/08 14:16:32;;;;;;;64.57;61.10;;;;;;;;;;5024239;28;20465;-90
2021/11/08 14:19:00;;;;;;;27.97;25.90;;;;;;;;;;5021711;28;20403;-90
2021/11/08 14:21:30;;;;;;;29.67;27.17;;;;;;;;;;5016273;28;20777;-90
2021/11/08 14:23:58;;;;;;;30.40;27.47;;;;;;;;;;5015066;28;20828;-91
2021/11/08 14:26:27;;;;;;;23.73;21.30;;;;;;;;;;5015147;28;20445;-91
2021/11/08 14:28:56;;;;;;;29.70;27.50;;;;;;;;;;5015618;28;20456;-91
2021/11/08 14:31:26;;;;;;;23.47;21.37;;;;;;;;;;5015655;28;20419;-91
2021/11/08 14:33:55;;;;;;;28.73;26.33;;;;;;;;;;5015834;28;20415;-91
2021/11/08 14:36:24;;;;;;;25.00;22.77;;;;;;;;;;5015526;28;20444;-91
2021/11/08 14:38:57;;;;;;;23.40;21.30;;;;;;;;;;5014478;28;20419;-92
2021/11/08 14:41:32;;;;;;;24.00;21.30;;;;;;;;;;5020080;28;20440;-91
2021/11/08 14:44:01;;;;;;;23.50;21.27;;;;;;;;;;5017344;28;20469;-92
2021/11/08 14:46:36;;;;;;;24.10;22.30;;;;;;;;;;5019381;28;20442;-91
2021/11/08 14:49:11;;;;;;;31.30;24.47;;;;;;;;;;5020309;28;20488;-91
2021/11/08 14:51:38;;;;;;;26.60;24.10;;;;;;;;;;5020195;28;20436;-91
2021/11/08 14:54:07;;;;;;;23.60;21.80;;;;;;;;;;5020017;28;20475;-91
2021/11/08 14:56:36;;;;;;;28.83;23.30;;;;;;;;;;5021865;28;20432;-91
2021/11/08 14:59:07;;;;;;;25.23;22.63;;;;;;;;;;5058715;28;20532;-90
2021/11/08 15:01:35;;;;;;;26.70;23.20;;;;;;;;;;5061134;28;20420;-90
2021/11/08 15:04:03;;;;;;;24.70;22.50;;;;;;;;;;5063341;28;20804;-90
2021/11/08 15:06:31;;;;;;;24.20;21.90;;;;;;;;;;5057956;28;20897;-91
2021/11/08 15:09:03;;;;;;;24.13;22.03;;;;;;;;;;5058542;28;20414;-92
2021/11/08 15:11:30;;;;;;;30.50;23.33;;;;;;;;;;5059173;28;20431;-92
2021/11/08 15:14:03;;;;;;;23.13;20.90;;;;;;;;;;5058715;28;20447;-90
2021/11/08 15:16:43;;;;;;;23.73;21.23;;;;;;;;;;5057595;28;20458;-89
2021/11/08 15:19:10;;;;;;;23.50;21.20;;;;;;;;;;5058235;28;20420;-88
2021/11/08 15:21:38;;;;;;;23.43;21.10;;;;;;;;;;5057962;28;20508;-90
2021/11/08 15:24:10;;;;;;;23.00;21.00;;;;;;;;;;5057883;28;20810;-90
2021/11/08 15:26:38;;;;;;;23.77;21.33;;;;;;;;;;5059109;28;20468;-90
2021/11/08 15:29:11;;;;;;;23.43;21.17;;;;;;;;;;5126721;22;20454;-89
2021/11/08 15:31:41;;;;;;;25.73;23.00;;;;;;;;;;5041289;28;20425;-89
2021/11/08 15:34:11;;;;;;;23.93;21.07;;;;;;;;;;5041416;28;20444;-88
2021/11/08 15:36:40;;;;;;;24.00;22.10;;;;;;;;;;5036156;28;20430;-90